sensor_id;sensor_type;location;lat;lon;timestamp;pressure;altitude;pressure_sealevel;temperature;humidity
24962;BME280;12992;50.884;13.668;2023-07-13T00:01:57;97021.41;;;18.58;100.00
24962;BME280;12992;50.884;13.668;2023-07-13T00:04:23;97019.22;;;18.47;100.00
24962;BME280;12992;50.884;13.668;2023-07-13T00:06:50;97031.00;;;18.38;100.00
24962;BME280;12992;50.884;13.668;2023-07-13T00:09:16;97040.03;;;18.30;100.00
24962;BME280;12992;50.884;13.668;2023-07-13T00:11:41;97062.19;;;18.25;100.00
24962;BME280;12992;50.884;13.668;2023-07-13T00:14:07;97082.31;;;18.26;100.00
24962;BME280;12992;50.884;13.668;2023-07-13T00:16:37;97086.28;;;18.20;100.00
24962;BME280;12992;50.884;13.668;2023-07-13T00:19:02;97100.53;;;18.13;100.00
24962;BME280;12992;50.884;13.668;2023-07-13T00:21:27;97100.13;;;17.92;100.00
24962;BME280;12992;50.884;13.668;2023-07-13T00:23:53;97105.97;;;17.77;100.00
24962;BME280;12992;50.884;13.668;2023-07-13T00:26:18;97107.47;;;17.55;100.00
24962;BME280;12992;50.884;13.668;2023-07-13T00:28:43;97106.56;;;17.46;100.00
24962;BME280;12992;50.884;13.668;2023-07-13T00:31:09;97113.06;;;17.37;100.00
24962;BME280;12992;50.884;13.668;2023-07-13T00:33:35;97113.91;;;17.23;100.00
24962;BME280;12992;50.884;13.668;2023-07-13T00:36:00;97129.38;;;17.19;100.00
24962;BME280;12992;50.884;13.668;2023-07-13T00:38:25;97141.44;;;17.05;100.00
24962;BME280;12992;50.884;13.668;2023-07-13T00:40:51;97168.94;;;16.91;100.00
24962;BME280;12992;50.884;13.668;2023-07-13T00:43:17;97182.25;;;16.84;100.00
24962;BME280;12992;50.884;13.668;2023-07-13T00:48:09;97155.34;;;16.81;100.00
24962;BME280;12992;50.884;13.668;2023-07-13T00:50:35;97133.19;;;16.91;100.00
24962;BME280;12992;50.884;13.668;2023-07-13T00:53:00;97107.97;;;16.84;100.00
24962;BME280;12992;50.884;13.668;2023-07-13T00:55:25;97098.47;;;16.76;100.00
24962;BME280;12992;50.884;13.668;2023-07-13T00:57:52;97102.19;;;16.66;100.00
24962;BME280;12992;50.884;13.668;2023-07-13T01:00:18;97104.34;;;16.69;100.00
24962;BME280;12992;50.884;13.668;2023-07-13T01:02:45;97092.63;;;16.64;100.00
24962;BME280;12992;50.884;13.668;2023-07-13T01:05:12;97100.50;;;16.52;100.00
24962;BME280;12992;50.884;13.668;2023-07-13T01:07:39;97106.59;;;16.49;100.00
24962;BME280;12992;50.884;13.668;2023-07-13T01:10:05;97106.16;;;16.41;100.00
24962;BME280;12992;50.884;13.668;2023-07-13T01:12:31;97106.41;;;16.26;100.00
24962;BME280;12992;50.884;13.668;2023-07-13T01:15:00;97113.28;;;16.24;100.00
24962;BME280;12992;50.884;13.668;2023-07-13T01:17:25;97127.34;;;16.22;100.00
24962;BME280;12992;50.884;13.668;2023-07-13T01:19:51;97126.53;;;16.22;100.00
24962;BME280;12992;50.884;13.668;2023-07-13T01:22:17;97120.56;;;16.14;100.00
24962;BME280;12992;50.884;13.668;2023-07-13T01:24:44;97121.03;;;16.03;100.00
24962;BME280;12992;50.884;13.668;2023-07-13T01:27:10;97132.06;;;15.98;100.00
24962;BME280;12992;50.884;13.668;2023-07-13T01:29:39;97133.69;;;15.99;100.00
24962;BME280;12992;50.884;13.668;2023-07-13T01:32:07;97130.69;;;16.00;100.00
24962;BME280;12992;50.884;13.668;2023-07-13T01:34:33;97128.97;;;16.04;100.00
24962;BME280;12992;50.884;13.668;2023-07-13T01:36:58;97134.97;;;16.06;100.00
24962;BME280;12992;50.884;13.668;2023-07-13T01:39:23;97131.88;;;16.13;100.00
24962;BME280;12992;50.884;13.668;2023-07-13T01:41:49;97132.69;;;16.13;100.00
24962;BME280;12992;50.884;13.668;2023-07-13T01:44:14;97134.81;;;16.17;100.00
24962;BME280;12992;50.884;13.668;2023-07-13T01:46:39;97131.06;;;16.12;100.00
24962;BME280;12992;50.884;13.668;2023-07-13T01:49:04;97140.31;;;16.17;100.00
24962;BME280;12992;50.884;13.668;2023-07-13T01:51:29;97134.56;;;16.18;100.00
24962;BME280;12992;50.884;13.668;2023-07-13T01:53:55;97126.31;;;16.18;100.00
24962;BME280;12992;50.884;13.668;2023-07-13T01:56:21;97129.78;;;16.24;100.00
24962;BME280;12992;50.884;13.668;2023-07-13T01:58:47;97129.72;;;16.29;100.00
24962;BME280;12992;50.884;13.668;2023-07-13T02:01:12;97112.72;;;16.27;100.00
24962;BME280;12992;50.884;13.668;2023-07-13T02:03:37;97111.91;;;16.26;100.00
24962;BME280;12992;50.884;13.668;2023-07-13T02:06:03;97104.84;;;16.20;100.00
24962;BME280;12992;50.884;13.668;2023-07-13T02:08:28;97106.53;;;16.16;100.00
24962;BME280;12992;50.884;13.668;2023-07-13T02:10:53;97106.31;;;16.12;100.00
24962;BME280;12992;50.884;13.668;2023-07-13T02:13:18;97102.56;;;16.08;100.00
24962;BME280;12992;50.884;13.668;2023-07-13T02:15:44;97110.25;;;16.06;100.00
24962;BME280;12992;50.884;13.668;2023-07-13T02:18:09;97105.34;;;16.03;100.00
24962;BME280;12992;50.884;13.668;2023-07-13T02:20:34;97108.09;;;16.03;100.00
24962;BME280;12992;50.884;13.668;2023-07-13T02:23:00;97109.53;;;16.01;100.00
24962;BME280;12992;50.884;13.668;2023-07-13T02:25:25;97106.47;;;16.02;100.00
24962;BME280;12992;50.884;13.668;2023-07-13T02:27:51;97107.59;;;16.01;100.00
24962;BME280;12992;50.884;13.668;2023-07-13T02:30:17;97109.72;;;16.04;100.00
24962;BME280;12992;50.884;13.668;2023-07-13T02:32:42;97101.84;;;15.98;100.00
24962;BME280;12992;50.884;13.668;2023-07-13T02:35:08;97103.22;;;16.00;100.00
24962;BME280;12992;50.884;13.668;2023-07-13T02:37:36;97098.22;;;16.02;100.00
24962;BME280;12992;50.884;13.668;2023-07-13T02:40:02;97108.09;;;16.03;100.00
24962;BME280;12992;50.884;13.668;2023-07-13T02:42:33;97103.44;;;16.04;100.00
24962;BME280;12992;50.884;13.668;2023-07-13T02:45:00;97098.22;;;16.02;100.00
24962;BME280;12992;50.884;13.668;2023-07-13T02:47:25;97098.75;;;16.04;100.00
24962;BME280;12992;50.884;13.668;2023-07-13T02:49:52;97098.22;;;16.02;100.00
24962;BME280;12992;50.884;13.668;2023-07-13T02:52:17;97096.31;;;16.03;100.00
24962;BME280;12992;50.884;13.668;2023-07-13T02:54:42;97109.44;;;16.06;100.00
24962;BME280;12992;50.884;13.668;2023-07-13T02:57:07;97109.72;;;16.04;100.00
24962;BME280;12992;50.884;13.668;2023-07-13T02:59:33;97113.53;;;16.08;100.00
24962;BME280;12992;50.884;13.668;2023-07-13T03:01:58;97117.31;;;16.12;100.00
24962;BME280;12992;50.884;13.668;2023-07-13T03:04:23;97119.25;;;16.12;100.00
24962;BME280;12992;50.884;13.668;2023-07-13T03:06:48;97124.44;;;16.13;100.00
24962;BME280;12992;50.884;13.668;2023-07-13T03:09:14;97140.88;;;16.19;100.00
24962;BME280;12992;50.884;13.668;2023-07-13T03:11:44;97138.94;;;16.19;100.00
24962;BME280;12992;50.884;13.668;2023-07-13T03:14:24;97142.72;;;16.23;100.00
24962;BME280;12992;50.884;13.668;2023-07-13T03:16:49;97135.81;;;16.26;100.00
24962;BME280;12992;50.884;13.668;2023-07-13T03:19:15;97129.78;;;16.24;100.00
24962;BME280;12992;50.884;13.668;2023-07-13T03:21:45;97121.63;;;16.19;100.00
24962;BME280;12992;50.884;13.668;2023-07-13T03:24:10;97124.75;;;16.12;100.00
24962;BME280;12992;50.884;13.668;2023-07-13T03:26:35;97130.06;;;16.03;100.00
24962;BME280;12992;50.884;13.668;2023-07-13T03:29:01;97123.56;;;15.99;100.00
24962;BME280;12992;50.884;13.668;2023-07-13T03:31:29;97123.09;;;15.92;100.00
24962;BME280;12992;50.884;13.668;2023-07-13T03:33:56;97131.16;;;15.83;100.00
24962;BME280;12992;50.884;13.668;2023-07-13T03:36:24;97140.53;;;15.82;100.00
24962;BME280;12992;50.884;13.668;2023-07-13T03:38:56;97136.19;;;15.76;100.00
24962;BME280;12992;50.884;13.668;2023-07-13T03:41:25;97145.25;;;15.77;100.00
24962;BME280;12992;50.884;13.668;2023-07-13T03:43:52;97152.06;;;15.79;100.00
24962;BME280;12992;50.884;13.668;2023-07-13T03:46:19;97155.38;;;15.81;100.00
24962;BME280;12992;50.884;13.668;2023-07-13T03:48:45;97146.84;;;15.83;100.00
24962;BME280;12992;50.884;13.668;2023-07-13T03:51:11;97150.09;;;15.85;100.00
24962;BME280;12992;50.884;13.668;2023-07-13T03:53:40;97149.28;;;15.84;100.00
24962;BME280;12992;50.884;13.668;2023-07-13T03:56:06;97161.09;;;15.85;100.00
24962;BME280;12992;50.884;13.668;2023-07-13T03:58:33;97158.03;;;15.86;100.00
24962;BME280;12992;50.884;13.668;2023-07-13T04:01:08;97172.53;;;15.92;100.00
24962;BME280;12992;50.884;13.668;2023-07-13T04:03:34;97158.84;;;15.87;100.00
24962;BME280;12992;50.884;13.668;2023-07-13T04:05:59;97172.22;;;15.94;100.00
24962;BME280;12992;50.884;13.668;2023-07-13T04:08:26;97177.13;;;15.97;100.00
24962;BME280;12992;50.884;13.668;2023-07-13T04:10:52;97180.63;;;16.02;100.00
24962;BME280;12992;50.884;13.668;2023-07-13T04:13:17;97180.81;;;16.11;100.00
24962;BME280;12992;50.884;13.668;2023-07-13T04:15:42;97175.06;;;16.07;100.00
24962;BME280;12992;50.884;13.668;2023-07-13T04:18:07;97184.88;;;16.13;100.00
24962;BME280;12992;50.884;13.668;2023-07-13T04:20:34;97169.47;;;16.18;100.00
24962;BME280;12992;50.884;13.668;2023-07-13T04:22:59;97169.88;;;16.25;100.00
24962;BME280;12992;50.884;13.668;2023-07-13T04:25:24;97168.25;;;16.24;100.00
24962;BME280;12992;50.884;13.668;2023-07-13T04:27:49;97164.13;;;16.26;100.00
24962;BME280;12992;50.884;13.668;2023-07-13T04:30:14;97172.06;;;16.28;100.00
24962;BME280;12992;50.884;13.668;2023-07-13T04:32:40;97171.53;;;16.26;100.00
24962;BME280;12992;50.884;13.668;2023-07-13T04:35:05;97178.59;;;16.32;100.00
24962;BME280;12992;50.884;13.668;2023-07-13T04:37:30;97192.47;;;16.40;100.00
24962;BME280;12992;50.884;13.668;2023-07-13T04:39:56;97204.22;;;16.46;100.00
24962;BME280;12992;50.884;13.668;2023-07-13T04:42:21;97197.91;;;16.46;100.00
24962;BME280;12992;50.884;13.668;2023-07-13T04:44:47;97192.06;;;16.52;100.00
24962;BME280;12992;50.884;13.668;2023-07-13T04:47:13;97184.47;;;16.44;100.00
24962;BME280;12992;50.884;13.668;2023-07-13T04:49:38;97183.88;;;16.47;100.00
24962;BME280;12992;50.884;13.668;2023-07-13T04:52:03;97186.09;;;16.45;100.00
24962;BME280;12992;50.884;13.668;2023-07-13T04:54:28;97196.28;;;16.45;100.00
24962;BME280;12992;50.884;13.668;2023-07-13T04:56:54;97204.53;;;16.45;100.00
24962;BME280;12992;50.884;13.668;2023-07-13T04:59:19;97204.22;;;16.46;100.00
24962;BME280;12992;50.884;13.668;2023-07-13T05:01:44;97207.28;;;16.45;100.00
24962;BME280;12992;50.884;13.668;2023-07-13T05:04:11;97204.53;;;16.45;100.00
24962;BME280;12992;50.884;13.668;2023-07-13T05:06:36;97211.66;;;16.46;100.00
24962;BME280;12992;50.884;13.668;2023-07-13T05:09:01;97211.16;;;16.43;100.00
24962;BME280;12992;50.884;13.668;2023-07-13T05:11:26;97211.41;;;16.42;100.00
24962;BME280;12992;50.884;13.668;2023-07-13T05:13:52;97220.06;;;16.54;100.00
24962;BME280;12992;50.884;13.668;2023-07-13T05:16:17;97223.25;;;16.61;100.00
24962;BME280;12992;50.884;13.668;2023-07-13T05:18:42;97228.03;;;16.75;100.00
24962;BME280;12992;50.884;13.668;2023-07-13T05:21:08;97217.69;;;16.85;100.00
24962;BME280;12992;50.884;13.668;2023-07-13T05:23:34;97234.56;;;16.97;100.00
24962;BME280;12992;50.884;13.668;2023-07-13T05:26:00;97231.28;;;17.14;100.00
24962;BME280;12992;50.884;13.668;2023-07-13T05:28:26;97235.94;;;17.33;100.00
24962;BME280;12992;50.884;13.668;2023-07-13T05:30:51;97235.66;;;17.48;100.00
24962;BME280;12992;50.884;13.668;2023-07-13T05:33:16;97227.63;;;17.65;100.00
24962;BME280;12992;50.884;13.668;2023-07-13T05:35:42;97234.13;;;17.88;100.00
24962;BME280;12992;50.884;13.668;2023-07-13T05:38:07;97227.88;;;18.10;100.00
24962;BME280;12992;50.884;13.668;2023-07-13T05:40:32;97217.28;;;18.17;100.00
24962;BME280;12992;50.884;13.668;2023-07-13T05:42:58;97211.84;;;18.26;100.00
24962;BME280;12992;50.884;13.668;2023-07-13T05:45:23;97208.47;;;18.43;100.00
24962;BME280;12992;50.884;13.668;2023-07-13T05:47:48;97200.34;;;18.60;100.00
24962;BME280;12992;50.884;13.668;2023-07-13T05:50:13;97189.31;;;18.60;100.00
24962;BME280;12992;50.884;13.668;2023-07-13T05:52:39;97183.34;;;18.44;100.00
24962;BME280;12992;50.884;13.668;2023-07-13T05:55:04;97194.41;;;18.30;100.00
24962;BME280;12992;50.884;13.668;2023-07-13T05:57:30;97196.13;;;18.26;100.00
24962;BME280;12992;50.884;13.668;2023-07-13T05:59:55;97197.97;;;18.31;100.00
24962;BME280;12992;50.884;13.668;2023-07-13T06:02:20;97196.22;;;18.35;100.00
24962;BME280;12992;50.884;13.668;2023-07-13T06:04:45;97208.56;;;18.51;100.00
24962;BME280;12992;50.884;13.668;2023-07-13T06:07:10;97215.47;;;18.62;100.00
24962;BME280;12992;50.884;13.668;2023-07-13T06:09:36;97217.34;;;18.67;100.00
24962;BME280;12992;50.884;13.668;2023-07-13T06:12:01;97211.41;;;18.60;100.00
24962;BME280;12992;50.884;13.668;2023-07-13T06:14:26;97210.19;;;18.66;100.00
24962;BME280;12992;50.884;13.668;2023-07-13T06:16:52;97216.34;;;18.85;100.00
24962;BME280;12992;50.884;13.668;2023-07-13T06:19:17;97218.25;;;18.99;100.00
24962;BME280;12992;50.884;13.668;2023-07-13T06:21:42;97229.56;;;19.11;100.00
24962;BME280;12992;50.884;13.668;2023-07-13T06:24:07;97222.41;;;19.10;100.00
24962;BME280;12992;50.884;13.668;2023-07-13T06:26:33;97233.19;;;19.20;100.00
24962;BME280;12992;50.884;13.668;2023-07-13T06:28:58;97230.63;;;19.23;100.00
24962;BME280;12992;50.884;13.668;2023-07-13T06:31:23;97221.91;;;19.30;100.00
24962;BME280;12992;50.884;13.668;2023-07-13T06:33:48;97224.88;;;19.42;100.00
24962;BME280;12992;50.884;13.668;2023-07-13T06:36:14;97230.19;;;19.52;100.00
24962;BME280;12992;50.884;13.668;2023-07-13T06:38:39;97225.97;;;19.55;100.00
24962;BME280;12992;50.884;13.668;2023-07-13T06:41:06;97227.28;;;19.58;100.00
24962;BME280;12992;50.884;13.668;2023-07-13T06:43:31;97232.28;;;19.78;100.00
24962;BME280;12992;50.884;13.668;2023-07-13T06:45:57;97234.13;;;19.91;100.00
24962;BME280;12992;50.884;13.668;2023-07-13T06:48:22;97244.63;;;20.12;100.00
24962;BME280;12992;50.884;13.668;2023-07-13T06:50:48;97252.69;;;20.39;100.00
24962;BME280;12992;50.884;13.668;2023-07-13T06:53:14;97257.97;;;20.58;100.00
24962;BME280;12992;50.884;13.668;2023-07-13T06:55:40;97241.56;;;20.61;99.67
24962;BME280;12992;50.884;13.668;2023-07-13T06:58:05;97246.94;;;20.75;100.00
24962;BME280;12992;50.884;13.668;2023-07-13T07:00:31;97244.69;;;20.95;100.00
24962;BME280;12992;50.884;13.668;2023-07-13T07:02:56;97240.78;;;20.96;96.52
24962;BME280;12992;50.884;13.668;2023-07-13T07:05:22;97238.00;;;20.70;95.94
24962;BME280;12992;50.884;13.668;2023-07-13T07:07:48;97233.31;;;20.39;100.00
24962;BME280;12992;50.884;13.668;2023-07-13T07:10:13;97237.19;;;20.29;100.00
24962;BME280;12992;50.884;13.668;2023-07-13T07:12:38;97235.44;;;20.33;100.00
24962;BME280;12992;50.884;13.668;2023-07-13T07:15:03;97232.09;;;20.54;100.00
24962;BME280;12992;50.884;13.668;2023-07-13T07:17:29;97236.38;;;20.69;99.09
24962;BME280;12992;50.884;13.668;2023-07-13T07:19:54;97246.31;;;20.87;97.54
24962;BME280;12992;50.884;13.668;2023-07-13T07:22:20;97238.97;;;20.82;95.89
24962;BME280;12992;50.884;13.668;2023-07-13T07:24:45;97227.53;;;20.67;96.53
24962;BME280;12992;50.884;13.668;2023-07-13T07:27:10;97234.75;;;20.68;93.33
24962;BME280;12992;50.884;13.668;2023-07-13T07:29:35;97238.63;;;20.84;91.70
24962;BME280;12992;50.884;13.668;2023-07-13T07:32:01;97240.44;;;20.97;92.01
24962;BME280;12992;50.884;13.668;2023-07-13T07:34:26;97244.03;;;21.06;91.17
24962;BME280;12992;50.884;13.668;2023-07-13T07:36:51;97237.03;;;21.35;88.19
24962;BME280;12992;50.884;13.668;2023-07-13T07:39:16;97242.41;;;21.57;87.35
24962;BME280;12992;50.884;13.668;2023-07-13T07:41:42;97233.56;;;21.55;84.27
24962;BME280;12992;50.884;13.668;2023-07-13T07:44:07;97249.06;;;21.73;85.86
24962;BME280;12992;50.884;13.668;2023-07-13T07:46:34;97241.13;;;22.10;79.55
24962;BME280;12992;50.884;13.668;2023-07-13T07:49:00;97243.25;;;22.43;77.72
24962;BME280;12992;50.884;13.668;2023-07-13T07:51:25;97251.75;;;22.97;77.24
24962;BME280;12992;50.884;13.668;2023-07-13T07:53:51;97256.66;;;23.54;77.88
24962;BME280;12992;50.884;13.668;2023-07-13T07:56:16;97253.63;;;24.13;77.02
24962;BME280;12992;50.884;13.668;2023-07-13T07:58:42;97256.69;;;24.44;73.20
24962;BME280;12992;50.884;13.668;2023-07-13T08:01:07;97229.94;;;23.94;70.91
24962;BME280;12992;50.884;13.668;2023-07-13T08:03:32;97227.38;;;23.89;74.54
24962;BME280;12992;50.884;13.668;2023-07-13T08:05:58;97232.94;;;23.89;74.66
24962;BME280;12992;50.884;13.668;2023-07-13T08:08:23;97235.06;;;24.17;73.15
24962;BME280;12992;50.884;13.668;2023-07-13T08:10:49;97229.28;;;24.22;70.83
24962;BME280;12992;50.884;13.668;2023-07-13T08:13:14;97247.75;;;24.51;73.87
24962;BME280;12992;50.884;13.668;2023-07-13T08:15:39;97244.03;;;24.83;71.47
24962;BME280;12992;50.884;13.668;2023-07-13T08:18:05;97252.81;;;25.10;72.11
24962;BME280;12992;50.884;13.668;2023-07-13T08:20:30;97254.69;;;25.34;71.48
24962;BME280;12992;50.884;13.668;2023-07-13T08:22:56;97252.38;;;25.64;69.23
24962;BME280;12992;50.884;13.668;2023-07-13T08:25:21;97245.16;;;25.75;68.43
24962;BME280;12992;50.884;13.668;2023-07-13T08:27:47;97245.91;;;26.04;63.62
24962;BME280;12992;50.884;13.668;2023-07-13T08:30:12;97246.47;;;26.57;62.65
24962;BME280;12992;50.884;13.668;2023-07-13T08:32:38;97254.22;;;26.79;63.09
24962;BME280;12992;50.884;13.668;2023-07-13T08:35:04;97255.88;;;27.92;58.91
24962;BME280;12992;50.884;13.668;2023-07-13T08:37:29;97218.56;;;27.27;59.75
24962;BME280;12992;50.884;13.668;2023-07-13T08:39:54;97225.94;;;27.00;62.76
24962;BME280;12992;50.884;13.668;2023-07-13T08:42:33;97215.31;;;26.39;63.34
24962;BME280;12992;50.884;13.668;2023-07-13T08:47:30;97201.25;;;25.60;65.86
24962;BME280;12992;50.884;13.668;2023-07-13T08:49:58;97204.66;;;25.97;63.67
24962;BME280;12992;50.884;13.668;2023-07-13T08:52:37;97227.47;;;26.62;58.53
24962;BME280;12992;50.884;13.668;2023-07-13T08:55:26;97260.91;;;28.06;57.76
24962;BME280;12992;50.884;13.668;2023-07-13T08:58:01;97290.06;;;30.51;54.74
24962;BME280;12992;50.884;13.668;2023-07-13T09:00:33;97261.97;;;31.75;48.59
24962;BME280;12992;50.884;13.668;2023-07-13T09:03:01;97232.25;;;29.72;55.03
24962;BME280;12992;50.884;13.668;2023-07-13T09:05:29;97201.50;;;28.16;56.17
24962;BME280;12992;50.884;13.668;2023-07-13T09:08:09;97191.69;;;27.42;55.99
24962;BME280;12992;50.884;13.668;2023-07-13T09:10:46;97177.22;;;26.81;56.38
24962;BME280;12992;50.884;13.668;2023-07-13T09:13:27;97186.13;;;26.36;59.02
24962;BME280;12992;50.884;13.668;2023-07-13T09:15:57;97217.59;;;27.19;57.00
24962;BME280;12992;50.884;13.668;2023-07-13T09:18:28;97217.88;;;27.72;56.59
24962;BME280;12992;50.884;13.668;2023-07-13T09:20:58;97215.22;;;27.79;56.01
24962;BME280;12992;50.884;13.668;2023-07-13T09:23:26;97226.66;;;28.36;55.45
24962;BME280;12992;50.884;13.668;2023-07-13T09:25:53;97233.69;;;28.98;52.57
24962;BME280;12992;50.884;13.668;2023-07-13T09:28:23;97237.47;;;29.73;51.47
24962;BME280;12992;50.884;13.668;2023-07-13T09:33:23;97202.19;;;28.10;53.00
24962;BME280;12992;50.884;13.668;2023-07-13T09:35:49;97219.47;;;28.15;52.65
24962;BME280;12992;50.884;13.668;2023-07-13T09:38:16;97203.97;;;27.99;53.30
24962;BME280;12992;50.884;13.668;2023-07-13T09:43:25;97222.47;;;28.03;55.65
24962;BME280;12992;50.884;13.668;2023-07-13T09:45:53;97209.09;;;28.16;53.53
24962;BME280;12992;50.884;13.668;2023-07-13T09:48:19;97249.59;;;29.21;54.22
24962;BME280;12992;50.884;13.668;2023-07-13T09:50:44;97239.06;;;30.08;50.36
24962;BME280;12992;50.884;13.668;2023-07-13T09:53:14;97214.72;;;29.85;48.71
24962;BME280;12992;50.884;13.668;2023-07-13T09:55:40;97219.38;;;29.37;53.00
24962;BME280;12992;50.884;13.668;2023-07-13T09:58:10;97238.06;;;29.93;51.47
24962;BME280;12992;50.884;13.668;2023-07-13T10:00:36;97276.81;;;31.68;49.58
24962;BME280;12992;50.884;13.668;2023-07-13T10:03:06;97275.44;;;32.42;46.78
24962;BME280;12992;50.884;13.668;2023-07-13T10:05:40;97279.88;;;33.39;44.82
24962;BME280;12992;50.884;13.668;2023-07-13T10:08:05;97294.00;;;34.38;46.88
24962;BME280;12992;50.884;13.668;2023-07-13T10:10:32;97271.34;;;34.97;43.79
24962;BME280;12992;50.884;13.668;2023-07-13T10:12:57;97267.97;;;34.64;44.39
24962;BME280;12992;50.884;13.668;2023-07-13T10:15:23;97278.88;;;34.62;45.76
24962;BME280;12992;50.884;13.668;2023-07-13T10:17:50;97237.72;;;33.91;43.76
24962;BME280;12992;50.884;13.668;2023-07-13T10:20:16;97222.72;;;32.96;46.57
24962;BME280;12992;50.884;13.668;2023-07-13T10:22:50;97182.16;;;31.32;47.24
24962;BME280;12992;50.884;13.668;2023-07-13T10:25:18;97173.38;;;30.20;49.61
24962;BME280;12992;50.884;13.668;2023-07-13T10:27:43;97153.78;;;28.89;51.65
24962;BME280;12992;50.884;13.668;2023-07-13T10:30:23;97152.47;;;28.53;53.38
24962;BME280;12992;50.884;13.668;2023-07-13T10:32:50;97113.06;;;27.66;53.46
24962;BME280;12992;50.884;13.668;2023-07-13T10:35:17;97136.88;;;27.79;52.64
24962;BME280;12992;50.884;13.668;2023-07-13T10:37:51;97136.66;;;27.91;51.88
24962;BME280;12992;50.884;13.668;2023-07-13T10:40:20;97127.47;;;27.26;53.49
24962;BME280;12992;50.884;13.668;2023-07-13T10:42:48;97189.97;;;28.71;52.68
24962;BME280;12992;50.884;13.668;2023-07-13T10:45:15;97201.78;;;30.11;48.63
24962;BME280;12992;50.884;13.668;2023-07-13T10:47:41;97222.06;;;31.51;48.82
24962;BME280;12992;50.884;13.668;2023-07-13T10:50:07;97236.03;;;32.88;46.74
24962;BME280;12992;50.884;13.668;2023-07-13T10:52:40;97217.75;;;33.39;44.34
24962;BME280;12992;50.884;13.668;2023-07-13T10:55:10;97232.00;;;34.05;44.26
24962;BME280;12992;50.884;13.668;2023-07-13T10:57:51;97225.56;;;34.60;41.48
24962;BME280;12992;50.884;13.668;2023-07-13T11:00:17;97189.09;;;33.51;43.06
24962;BME280;12992;50.884;13.668;2023-07-13T11:02:42;97166.28;;;32.92;43.00
24962;BME280;12992;50.884;13.668;2023-07-13T11:07:55;97162.16;;;33.22;43.09
24962;BME280;12992;50.884;13.668;2023-07-13T11:13:27;97205.69;;;34.16;44.08
24962;BME280;12992;50.884;13.668;2023-07-13T11:15:50;97167.69;;;33.58;43.99
24962;BME280;12992;50.884;13.668;2023-07-13T11:18:22;97111.53;;;31.76;44.20
24962;BME280;12992;50.884;13.668;2023-07-13T11:20:48;97096.81;;;30.33;45.65
24962;BME280;12992;50.884;13.668;2023-07-13T11:25:43;97081.53;;;27.92;51.28
24962;BME280;12992;50.884;13.668;2023-07-13T11:33:10;97148.97;;;31.83;45.61
24962;BME280;12992;50.884;13.668;2023-07-13T11:38:10;97070.91;;;30.61;45.95
24962;BME280;12992;50.884;13.668;2023-07-13T11:40:37;97078.59;;;29.28;47.66
24962;BME280;12992;50.884;13.668;2023-07-13T11:43:02;97115.06;;;30.64;47.04
24962;BME280;12992;50.884;13.668;2023-07-13T11:45:31;97129.13;;;31.44;45.96
24962;BME280;12992;50.884;13.668;2023-07-13T11:47:57;97155.03;;;32.78;43.13
24962;BME280;12992;50.884;13.668;2023-07-13T11:50:25;97158.03;;;33.51;42.78
24962;BME280;12992;50.884;13.668;2023-07-13T11:52:51;97172.41;;;34.41;41.42
24962;BME280;12992;50.884;13.668;2023-07-13T11:55:19;97115.34;;;33.32;41.60
24962;BME280;12992;50.884;13.668;2023-07-13T11:57:47;97093.03;;;32.60;42.56
24962;BME280;12992;50.884;13.668;2023-07-13T12:00:18;97069.97;;;31.19;43.77
24962;BME280;12992;50.884;13.668;2023-07-13T12:02:47;97088.47;;;30.48;46.44
24962;BME280;12992;50.884;13.668;2023-07-13T12:05:15;97109.38;;;31.26;45.20
24962;BME280;12992;50.884;13.668;2023-07-13T12:07:42;97099.47;;;32.22;43.28
24962;BME280;12992;50.884;13.668;2023-07-13T12:12:52;97108.28;;;32.88;42.82
24962;BME280;12992;50.884;13.668;2023-07-13T12:15:17;97119.94;;;33.74;42.30
24962;BME280;12992;50.884;13.668;2023-07-13T12:17:43;97117.16;;;34.26;41.28
24962;BME280;12992;50.884;13.668;2023-07-13T12:20:19;97128.34;;;34.85;39.10
24962;BME280;12992;50.884;13.668;2023-07-13T12:22:46;97150.53;;;35.58;40.65
24962;BME280;12992;50.884;13.668;2023-07-13T12:25:12;97114.72;;;35.10;39.17
24962;BME280;12992;50.884;13.668;2023-07-13T12:27:37;97097.91;;;34.58;40.35
24962;BME280;12992;50.884;13.668;2023-07-13T12:30:06;97077.53;;;33.88;41.11
24962;BME280;12992;50.884;13.668;2023-07-13T12:35:38;97090.47;;;34.30;39.87
24962;BME280;12992;50.884;13.668;2023-07-13T12:38:04;97109.38;;;35.16;38.92
24962;BME280;12992;50.884;13.668;2023-07-13T12:40:33;97101.03;;;35.66;39.25
24962;BME280;12992;50.884;13.668;2023-07-13T12:43:00;97087.63;;;35.43;38.84
24962;BME280;12992;50.884;13.668;2023-07-13T12:45:29;97083.63;;;35.37;38.42
24962;BME280;12992;50.884;13.668;2023-07-13T12:47:56;97062.84;;;34.90;39.19
24962;BME280;12992;50.884;13.668;2023-07-13T12:50:29;97048.81;;;34.38;40.42
24962;BME280;12992;50.884;13.668;2023-07-13T12:52:56;97040.81;;;33.18;41.01
24962;BME280;12992;50.884;13.668;2023-07-13T12:55:24;97040.25;;;31.25;44.03
24962;BME280;12992;50.884;13.668;2023-07-13T12:57:50;97065.09;;;31.06;46.20
24962;BME280;12992;50.884;13.668;2023-07-13T13:02:44;97075.28;;;31.71;44.91
24962;BME280;12992;50.884;13.668;2023-07-13T13:05:09;97055.97;;;31.41;43.81
24962;BME280;12992;50.884;13.668;2023-07-13T13:07:39;97078.09;;;31.49;45.06
24962;BME280;12992;50.884;13.668;2023-07-13T13:10:11;97093.44;;;32.52;43.66
24962;BME280;12992;50.884;13.668;2023-07-13T13:12:36;97053.19;;;32.05;43.72
24962;BME280;12992;50.884;13.668;2023-07-13T13:15:01;97044.97;;;31.00;45.64
24962;BME280;12992;50.884;13.668;2023-07-13T13:17:28;97050.81;;;30.59;46.59